Time;durP1;ratioP1;P1;durP2;ratioP2;P2;SDS_P1;SDS_P2;PMS_P1;PMS_P2;Temp;Humidity;BMP_temperature;BMP_pressure;BME280_temperature;BME280_humidity;BME280_pressure;Samples;Min_cycle;Max_cycle;Signal;HPM_P1;HPM_P2
2023/09/11 00:01:29;;;;;;;22.60;10.70;;;;;;;8.80;100.00;101528.45;105819;1293;58575;-85
2023/09/11 00:03:55;;;;;;;25.30;11.90;;;;;;;8.82;100.00;101527.27;105773;1293;58395;-84
2023/09/11 00:06:20;;;;;;;21.50;10.30;;;;;;;8.81;100.00;101525.25;105835;1294;58486;-84
2023/09/11 00:08:46;;;;;;;24.50;11.60;;;;;;;8.79;100.00;101522.92;105822;1294;58618;-85
2023/09/11 00:11:11;;;;;;;21.20;10.60;;;;;;;8.76;100.00;101522.09;105848;1293;58348;-84
2023/09/11 00:13:37;;;;;;;22.40;10.70;;;;;;;8.74;100.00;101522.90;105944;1294;58389;-84
2023/09/11 00:16:02;;;;;;;23.70;11.70;;;;;;;8.71;100.00;101521.77;105907;1293;58694;-84
2023/09/11 00:18:28;;;;;;;20.70;10.20;;;;;;;8.69;100.00;101520.05;106200;1291;58283;-84
2023/09/11 00:20:53;;;;;;;24.00;11.60;;;;;;;8.67;100.00;101518.39;106288;1290;61230;-85
2023/09/11 00:23:19;;;;;;;24.00;11.70;;;;;;;8.68;100.00;101517.27;106222;1292;58381;-84
2023/09/11 00:25:45;;;;;;;32.00;11.10;;;;;;;8.66;100.00;101519.64;106296;1290;58326;-84
2023/09/11 00:28:10;;;;;;;24.00;11.10;;;;;;;8.66;100.00;101513.25;106067;1291;58680;-85
2023/09/11 00:30:36;;;;;;;21.90;11.00;;;;;;;8.63;100.00;101508.92;106426;1287;59106;-84
2023/09/11 00:33:02;;;;;;;21.60;11.60;;;;;;;8.64;100.00;101508.98;106252;1287;73558;-85
2023/09/11 00:35:28;;;;;;;22.90;12.00;;;;;;;8.64;100.00;101510.14;106432;1289;58377;-84
2023/09/11 00:37:53;;;;;;;21.50;10.80;;;;;;;8.65;100.00;101506.14;106259;1286;58318;-84
2023/09/11 00:40:19;;;;;;;22.00;10.50;;;;;;;8.62;100.00;101503.32;106645;1286;58362;-84
2023/09/11 00:42:44;;;;;;;22.10;11.30;;;;;;;8.60;100.00;101499.45;106683;1286;59099;-84
2023/09/11 00:45:11;;;;;;;24.10;11.30;;;;;;;8.55;100.00;101502.20;106605;1286;74463;-84
2023/09/11 00:47:42;;;;;;;26.00;11.50;;;;;;;8.52;100.00;101503.23;106617;1286;73308;-84
2023/09/11 00:50:10;;;;;;;26.90;11.70;;;;;;;8.51;100.00;101504.48;106450;1287;61228;-84
2023/09/11 00:52:36;;;;;;;22.10;11.70;;;;;;;8.47;100.00;101501.87;106471;1286;60974;-84
2023/09/11 00:55:03;;;;;;;22.80;11.40;;;;;;;8.45;100.00;101502.89;106643;1286;58430;-84
2023/09/11 00:57:29;;;;;;;22.10;11.00;;;;;;;8.43;100.00;101503.16;106683;1286;74288;-84
2023/09/11 00:59:55;;;;;;;24.30;12.30;;;;;;;8.41;100.00;101506.40;106478;1287;58389;-84
2023/09/11 01:02:21;;;;;;;22.40;11.70;;;;;;;8.41;100.00;101504.86;106581;1287;58305;-84
2023/09/11 01:04:48;;;;;;;24.20;12.10;;;;;;;8.43;100.00;101502.41;106638;1286;58642;-84
2023/09/11 01:07:14;;;;;;;23.90;11.80;;;;;;;8.41;100.00;101496.39;106967;1283;58156;-84
2023/09/11 01:09:41;;;;;;;28.00;11.70;;;;;;;8.39;100.00;101495.55;106855;1283;58360;-84
2023/09/11 01:12:07;;;;;;;22.40;11.30;;;;;;;8.39;100.00;101495.97;107005;1283;58384;-84
2023/09/11 01:14:33;;;;;;;23.00;11.30;;;;;;;8.40;100.00;101497.65;107110;1282;58171;-84
2023/09/11 01:17:27;;;;;;;21.50;11.20;;;;;;;8.39;100.00;101494.71;106741;1283;58207;-84
2023/09/11 01:20:27;;;;;;;24.40;11.90;;;;;;;8.37;100.00;101493.77;106335;1290;74423;-84
2023/09/11 01:23:29;;;;;;;39.50;16.50;;;;;;;8.34;100.00;101490.31;106253;1289;74584;-83
2023/09/11 01:26:06;;;;;;;27.20;13.70;;;;;;;8.33;100.00;101483.55;106327;1289;72931;-83
2023/09/11 01:28:53;;;;;;;30.90;15.80;;;;;;;8.34;100.00;101482.77;106179;1291;61958;-83
2023/09/11 01:31:19;;;;;;;40.50;18.30;;;;;;;8.33;100.00;101481.32;106239;1289;61164;-84
2023/09/11 01:33:45;;;;;;;44.70;19.60;;;;;;;8.31;100.00;101482.76;106292;1289;58412;-83
2023/09/11 01:36:10;;;;;;;42.90;19.20;;;;;;;8.29;100.00;101486.16;106107;1289;58576;-83
2023/09/11 01:38:36;;;;;;;56.00;23.70;;;;;;;8.29;100.00;101486.86;106227;1289;58488;-83
2023/09/11 01:41:04;;;;;;;56.60;23.50;;;;;;;8.27;100.00;101488.74;106383;1289;58837;-84
2023/09/11 01:43:35;;;;;;;57.20;23.50;;;;;;;8.23;100.00;101486.96;106291;1289;58311;-84
2023/09/11 01:46:02;;;;;;;54.50;22.20;;;;;;;8.21;100.00;101490.45;106218;1291;74768;-83
2023/09/11 01:48:30;;;;;;;53.00;22.50;;;;;;;8.19;100.00;101491.79;105852;1294;72176;-83
2023/09/11 01:50:57;;;;;;;48.50;22.20;;;;;;;8.18;100.00;101492.93;105857;1294;72464;-83
2023/09/11 01:53:23;;;;;;;57.70;23.60;;;;;;;8.15;100.00;101492.16;105865;1293;61090;-83
2023/09/11 01:55:51;;;;;;;59.00;24.50;;;;;;;8.13;100.00;101488.55;106044;1294;58470;-83
2023/09/11 01:58:16;;;;;;;51.20;23.20;;;;;;;8.10;100.00;101485.68;106278;1286;73036;-83
2023/09/11 02:00:42;;;;;;;58.70;24.40;;;;;;;8.10;100.00;101483.67;106534;1286;59209;-83
2023/09/11 02:03:07;;;;;;;47.30;20.80;;;;;;;8.08;100.00;101483.60;106491;1286;58385;-84
2023/09/11 02:05:33;;;;;;;50.00;20.80;;;;;;;8.07;100.00;101489.52;106424;1286;58349;-83
2023/09/11 02:07:58;;;;;;;44.80;20.60;;;;;;;8.08;100.00;101485.50;106480;1286;59069;-84
2023/09/11 02:10:24;;;;;;;51.60;20.20;;;;;;;8.09;100.00;101484.29;106635;1286;73627;-83
2023/09/11 02:12:49;;;;;;;42.80;18.70;;;;;;;8.09;100.00;101481.27;106250;1286;58315;-84
2023/09/11 02:15:15;;;;;;;42.50;19.20;;;;;;;8.08;100.00;101485.59;106370;1286;58580;-82
2023/09/11 02:17:41;;;;;;;45.20;19.60;;;;;;;8.06;100.00;101483.25;106498;1286;58761;-83
2023/09/11 02:20:07;;;;;;;39.30;18.40;;;;;;;8.04;100.00;101482.19;106824;1283;58618;-84
2023/09/11 02:22:32;;;;;;;40.00;18.30;;;;;;;8.03;100.00;101482.55;107077;1282;73142;-83
2023/09/11 02:24:58;;;;;;;33.50;16.10;;;;;;;8.05;100.00;101477.15;107032;1283;58304;-83
2023/09/11 02:27:24;;;;;;;34.20;17.20;;;;;;;8.06;100.00;101477.31;107026;1283;58267;-83
2023/09/11 02:29:49;;;;;;;37.10;16.50;;;;;;;8.05;100.00;101475.45;106716;1283;58385;-83
2023/09/11 02:32:15;;;;;;;33.90;16.60;;;;;;;8.06;100.00;101472.60;107058;1283;58168;-83
2023/09/11 02:34:40;;;;;;;26.90;13.80;;;;;;;8.03;100.00;101476.52;106908;1283;58328;-83
2023/09/11 02:37:07;;;;;;;33.40;15.70;;;;;;;8.03;100.00;101477.95;107066;1282;58658;-83
2023/09/11 02:39:32;;;;;;;30.00;14.80;;;;;;;7.99;100.00;101477.73;107018;1283;58247;-83
2023/09/11 02:41:58;;;;;;;31.80;14.90;;;;;;;7.96;100.00;101476.20;107017;1283;58355;-83
2023/09/11 02:44:23;;;;;;;30.90;15.10;;;;;;;7.93;100.00;101478.70;106575;1286;58330;-83
2023/09/11 02:46:49;;;;;;;30.60;14.20;;;;;;;7.92;100.00;101474.95;106777;1285;58345;-83
2023/09/11 02:49:14;;;;;;;31.10;14.80;;;;;;;7.92;100.00;101474.80;106425;1286;58753;-83
2023/09/11 02:51:40;;;;;;;29.90;13.90;;;;;;;7.91;100.00;101473.24;106653;1286;58278;-83
2023/09/11 02:54:24;;;;;;;32.00;13.40;;;;;;;7.88;100.00;101478.42;106624;1286;58365;-83
2023/09/11 02:56:50;;;;;;;26.60;12.80;;;;;;;7.86;100.00;101481.95;106703;1285;61740;-83
2023/09/11 02:59:15;;;;;;;31.60;14.20;;;;;;;7.84;100.00;101482.80;106718;1285;58548;-84
2023/09/11 03:01:41;;;;;;;25.30;13.00;;;;;;;7.84;100.00;101483.45;106742;1285;58310;-83
2023/09/11 03:04:06;;;;;;;28.80;13.20;;;;;;;7.85;100.00;101483.23;106758;1285;58369;-83
2023/09/11 03:06:32;;;;;;;25.30;12.40;;;;;;;7.83;100.00;101481.97;106770;1285;58257;-83
2023/09/11 03:08:57;;;;;;;30.60;13.50;;;;;;;7.83;100.00;101481.19;106709;1285;60804;-83
2023/09/11 03:11:23;;;;;;;27.80;13.70;;;;;;;7.81;100.00;101485.65;106749;1285;58394;-83
2023/09/11 03:13:49;;;;;;;25.40;12.40;;;;;;;7.82;100.00;101488.98;106696;1286;58441;-83
2023/09/11 03:16:15;;;;;;;28.20;11.90;;;;;;;7.81;100.00;101488.80;106948;1283;58277;-82
2023/09/11 03:18:41;;;;;;;23.80;11.90;;;;;;;7.82;100.00;101487.84;106888;1283;58299;-82
2023/09/11 03:21:07;;;;;;;26.50;12.50;;;;;;;7.83;100.00;101491.88;107054;1284;58598;-83
2023/09/11 03:23:34;;;;;;;25.10;12.50;;;;;;;7.87;100.00;101491.85;107056;1283;58433;-82
2023/09/11 03:25:59;;;;;;;22.60;12.30;;;;;;;7.90;100.00;101492.60;107031;1283;73181;-82
2023/09/11 03:28:30;;;;;;;22.20;12.10;;;;;;;7.95;100.00;101494.23;107019;1283;58182;-82
2023/09/11 03:30:56;;;;;;;23.70;12.00;;;;;;;8.02;100.00;101495.64;107016;1283;61173;-83
2023/09/11 03:33:22;;;;;;;26.00;12.90;;;;;;;8.06;100.00;101492.38;107035;1282;58255;-83
2023/09/11 03:35:48;;;;;;;25.30;13.00;;;;;;;8.08;100.00;101496.27;107022;1282;58245;-83
2023/09/11 03:38:14;;;;;;;29.00;12.60;;;;;;;8.12;100.00;101491.52;106856;1283;58281;-82
2023/09/11 03:40:41;;;;;;;27.80;12.60;;;;;;;8.19;100.00;101495.39;107028;1283;58412;-83
2023/09/11 03:43:07;;;;;;;28.30;13.10;;;;;;;8.27;100.00;101492.77;106986;1283;58760;-83
2023/09/11 03:45:32;;;;;;;30.80;12.90;;;;;;;8.34;100.00;101493.75;107025;1283;58191;-83
2023/09/11 03:47:58;;;;;;;27.80;12.60;;;;;;;8.43;100.00;101495.09;107030;1283;58292;-83
2023/09/11 03:50:23;;;;;;;31.50;12.60;;;;;;;8.51;100.00;101495.14;107057;1283;58281;-83
2023/09/11 03:52:50;;;;;;;34.20;12.70;;;;;;;8.62;100.00;101494.11;107038;1283;58244;-83
2023/09/11 03:55:16;;;;;;;27.50;12.60;;;;;;;8.72;100.00;101495.64;107037;1283;75117;-83
2023/09/11 03:57:42;;;;;;;27.10;12.40;;;;;;;8.85;100.00;101490.31;107080;1283;58311;-84
2023/09/11 04:00:08;;;;;;;40.90;15.90;;;;;;;8.97;100.00;101489.94;106995;1283;58248;-83
2023/09/11 04:02:33;;;;;;;39.10;14.90;;;;;;;9.12;100.00;101494.52;106742;1283;58541;-84
2023/09/11 04:04:59;;;;;;;31.90;14.00;;;;;;;9.34;100.00;101489.10;107026;1283;58328;-84
2023/09/11 04:07:24;;;;;;;37.20;13.50;;;;;;;9.73;100.00;101489.86;107099;1282;58645;-84
2023/09/11 04:09:50;;;;;;;32.00;12.90;;;;;;;10.60;100.00;101489.23;106743;1283;73136;-84
2023/09/11 04:12:17;;;;;;;33.60;12.20;;;;;;;11.69;100.00;101487.30;107045;1283;58501;-84
2023/09/11 04:14:43;;;;;;;29.80;11.50;;;;;;;12.78;100.00;101486.42;107017;1285;58588;-84
2023/09/11 04:17:10;;;;;;;36.30;11.80;;;;;;;13.82;100.00;101482.48;106749;1283;58402;-85
2023/09/11 04:19:37;;;;;;;30.20;12.80;;;;;;;14.68;100.00;101472.11;106895;1283;59140;-85
2023/09/11 04:22:04;;;;;;;36.50;12.70;;;;;;;15.51;100.00;101473.80;107020;1283;58305;-85
2023/09/11 04:24:30;;;;;;;29.20;13.40;;;;;;;16.47;100.00;101471.45;107018;1284;61932;-85
2023/09/11 04:26:55;;;;;;;28.80;11.90;;;;;;;17.41;100.00;101472.37;107051;1283;58280;-86
2023/09/11 04:29:21;;;;;;;28.10;12.10;;;;;;;18.30;100.00;101472.30;106673;1283;58389;-85
2023/09/11 04:31:47;;;;;;;25.30;12.50;;;;;;;18.96;100.00;101471.76;107044;1283;58544;-86
2023/09/11 04:34:12;;;;;;;29.00;12.00;;;;;;;19.54;100.00;101471.27;107018;1283;58776;-86
2023/09/11 04:36:38;;;;;;;25.30;11.20;;;;;;;20.39;100.00;101466.96;107056;1283;58350;-86
2023/09/11 04:39:06;;;;;;;27.20;11.00;;;;;;;21.19;100.00;101466.55;106819;1283;58388;-86
2023/09/11 04:41:31;;;;;;;24.60;10.70;;;;;;;22.02;100.00;101464.66;107039;1283;74693;-86
2023/09/11 04:43:57;;;;;;;23.10;10.70;;;;;;;22.64;99.85;101463.70;106742;1285;58588;-86
2023/09/11 04:46:23;;;;;;;29.20;11.70;;;;;;;23.22;95.45;101460.74;107059;1283;58676;-87
2023/09/11 04:48:48;;;;;;;25.20;11.10;;;;;;;23.79;90.73;101453.38;107047;1283;58247;-87
2023/09/11 04:51:13;;;;;;;21.70;10.80;;;;;;;24.54;87.37;101451.38;106918;1283;58382;-86
2023/09/11 04:53:39;;;;;;;21.70;10.50;;;;;;;25.18;79.73;101451.36;106748;1283;71586;-87
2023/09/11 04:56:04;;;;;;;24.10;11.70;;;;;;;25.77;74.88;101450.33;107058;1283;58174;-86
2023/09/11 04:58:30;;;;;;;25.00;10.70;;;;;;;26.28;71.29;101449.75;107023;1283;58318;-87
2023/09/11 05:00:56;;;;;;;24.60;11.00;;;;;;;26.93;69.04;101445.69;106993;1282;58355;-87
2023/09/11 05:03:21;;;;;;;24.10;10.50;;;;;;;27.49;65.47;101440.23;107090;1284;58286;-88
2023/09/11 05:05:50;;;;;;;19.60;10.30;;;;;;;27.99;62.64;101440.91;106959;1283;61127;-87
2023/09/11 05:08:16;;;;;;;20.10;9.60;;;;;;;28.53;60.53;101437.75;107007;1285;61015;-87
2023/09/11 05:10:42;;;;;;;16.30;9.70;;;;;;;29.30;58.65;101433.20;106812;1285;58298;-87
2023/09/11 05:13:08;;;;;;;18.60;9.60;;;;;;;30.12;56.48;101433.81;107013;1283;58288;-85
2023/09/11 05:15:34;;;;;;;19.40;9.40;;;;;;;30.61;52.90;101436.63;107027;1283;58312;-85
2023/09/11 05:17:59;;;;;;;20.80;9.20;;;;;;;30.88;51.14;101432.45;107029;1283;58611;-85
2023/09/11 05:20:25;;;;;;;23.70;8.90;;;;;;;31.13;50.03;101433.55;106990;1285;58628;-84
2023/09/11 05:22:50;;;;;;;17.30;9.00;;;;;;;31.67;49.43;101427.84;107120;1283;58225;-84
2023/09/11 05:25:16;;;;;;;19.30;9.10;;;;;;;32.08;47.12;101431.95;107002;1283;58388;-84
2023/09/11 05:27:44;;;;;;;18.50;9.30;;;;;;;32.04;46.05;101432.33;106456;1286;58300;-84
2023/09/11 05:30:10;;;;;;;13.50;9.10;;;;;;;32.24;45.08;101427.92;106669;1286;60026;-85
2023/09/11 05:32:36;;;;;;;14.00;8.30;;;;;;;32.36;44.44;101428.88;106699;1286;58367;-85
2023/09/11 05:35:03;;;;;;;13.00;8.60;;;;;;;32.63;43.52;101427.14;106639;1286;58514;-85
2023/09/11 05:37:28;;;;;;;17.30;9.50;;;;;;;32.68;42.76;101425.73;106401;1286;58695;-85
2023/09/11 05:39:54;;;;;;;13.30;9.10;;;;;;;32.92;42.29;101428.71;106687;1287;58325;-85
2023/09/11 05:42:19;;;;;;;16.40;8.60;;;;;;;33.47;41.63;101426.24;106525;1286;58390;-85
2023/09/11 05:44:45;;;;;;;31.90;10.30;;;;;;;33.91;41.44;101424.69;106753;1286;58393;-85
2023/09/11 05:47:11;;;;;;;16.30;8.80;;;;;;;34.32;40.72;101422.83;106702;1286;73434;-85
2023/09/11 05:49:36;;;;;;;13.20;8.30;;;;;;;34.57;39.50;101418.14;106659;1287;58265;-85
2023/09/11 05:52:02;;;;;;;21.80;8.90;;;;;;;34.82;38.84;101416.83;106549;1286;58346;-85
2023/09/11 05:54:29;;;;;;;12.30;8.20;;;;;;;35.21;38.10;101419.06;106709;1285;58745;-85
2023/09/11 05:56:54;;;;;;;14.40;7.70;;;;;;;35.60;37.24;101422.33;106683;1287;58356;-85
2023/09/11 05:59:20;;;;;;;14.00;8.10;;;;;;;36.06;36.31;101417.14;106877;1285;58345;-86
2023/09/11 06:01:46;;;;;;;16.60;9.10;;;;;;;36.65;35.63;101419.26;107059;1283;58287;-85
2023/09/11 06:04:12;;;;;;;13.90;7.80;;;;;;;37.05;34.97;101419.88;106984;1285;75323;-85
2023/09/11 06:06:38;;;;;;;11.80;8.10;;;;;;;37.48;35.46;101422.64;107043;1283;58388;-85
2023/09/11 06:09:08;;;;;;;15.80;7.80;;;;;;;38.09;34.85;101420.98;107024;1283;58212;-86
2023/09/11 06:11:34;;;;;;;14.30;7.40;;;;;;;38.22;33.27;101423.00;106869;1285;59030;-85
2023/09/11 06:14:00;;;;;;;10.20;7.70;;;;;;;38.14;33.19;101423.20;107018;1283;58293;-85
2023/09/11 06:16:25;;;;;;;13.40;7.90;;;;;;;38.36;33.08;101423.86;107038;1283;58485;-86
2023/09/11 06:18:51;;;;;;;13.00;8.30;;;;;;;38.76;31.86;101425.32;106856;1284;58246;-85
2023/09/11 06:21:17;;;;;;;11.60;7.80;;;;;;;39.16;31.94;101430.89;106661;1283;58356;-85
2023/09/11 06:23:43;;;;;;;14.90;8.50;;;;;;;39.34;32.22;101428.41;107048;1284;58367;-84
2023/09/11 06:26:10;;;;;;;11.60;8.10;;;;;;;39.92;31.78;101426.18;107044;1285;58251;-85
2023/09/11 06:28:36;;;;;;;11.90;8.20;;;;;;;39.87;30.17;101424.42;107057;1284;58171;-85
2023/09/11 06:31:02;;;;;;;14.50;8.40;;;;;;;39.95;30.25;101423.98;106881;1284;58360;-84
2023/09/11 06:33:27;;;;;;;13.80;9.40;;;;;;;40.45;29.96;101420.65;106703;1284;58464;-85
2023/09/11 06:35:56;;;;;;;24.00;10.20;;;;;;;40.59;29.56;101421.53;107048;1284;58161;-82
2023/09/11 06:38:22;;;;;;;29.90;10.60;;;;;;;40.86;29.01;101417.59;107017;1283;74539;-84
2023/09/11 06:40:48;;;;;;;14.50;10.80;;;;;;;40.76;28.74;101417.58;106695;1283;58338;-84
2023/09/11 06:43:14;;;;;;;19.90;10.50;;;;;;;40.79;28.21;101421.13;107054;1283;58247;-84
2023/09/11 06:45:41;;;;;;;16.80;10.60;;;;;;;40.74;28.05;101418.71;107059;1283;58129;-84
2023/09/11 06:48:11;;;;;;;13.60;10.20;;;;;;;40.65;27.57;101419.36;107055;1285;58190;-84
2023/09/11 06:50:36;;;;;;;13.70;9.20;;;;;;;40.68;28.53;101416.50;106548;1283;72413;-84
2023/09/11 06:53:02;;;;;;;14.00;9.70;;;;;;;41.31;28.27;101414.27;106747;1283;58302;-85
2023/09/11 06:55:28;;;;;;;12.90;8.50;;;;;;;41.67;26.76;101413.83;107051;1283;58578;-84
2023/09/11 06:57:56;;;;;;;11.10;8.70;;;;;;;41.78;27.35;101411.60;106665;1283;58276;-84
2023/09/11 07:00:22;;;;;;;10.20;9.10;;;;;;;41.98;26.68;101413.81;107048;1284;59024;-84
2023/09/11 07:02:48;;;;;;;12.40;7.90;;;;;;;42.05;26.83;101409.92;106503;1284;58620;-84
2023/09/11 07:05:16;;;;;;;10.20;8.30;;;;;;;42.15;26.57;101412.15;107057;1283;58265;-84
2023/09/11 07:07:42;;;;;;;7.90;6.70;;;;;;;42.34;26.08;101408.91;107031;1284;58259;-84
2023/09/11 07:10:11;;;;;;;16.80;7.20;;;;;;;42.27;25.68;101408.66;106853;1283;58286;-83
2023/09/11 07:12:37;;;;;;;8.80;7.70;;;;;;;41.92;25.71;101411.35;106995;1283;60200;-84
2023/09/11 07:15:03;;;;;;;8.20;7.40;;;;;;;41.33;25.75;101410.73;107034;1283;58343;-83
2023/09/11 07:17:29;;;;;;;8.10;7.30;;;;;;;41.58;26.17;101410.38;106370;1283;58361;-83
2023/09/11 07:19:55;;;;;;;10.00;7.70;;;;;;;41.96;25.36;101410.16;107036;1283;58744;-83
2023/09/11 07:22:20;;;;;;;7.70;6.80;;;;;;;42.29;25.51;101410.63;107077;1283;58173;-85
2023/09/11 07:24:46;;;;;;;18.20;7.60;;;;;;;42.26;24.73;101408.27;106697;1284;58472;-83
2023/09/11 07:27:12;;;;;;;8.50;7.20;;;;;;;42.27;25.14;101405.58;107115;1284;58190;-83
2023/09/11 07:29:38;;;;;;;7.90;7.10;;;;;;;42.87;25.07;101408.83;106985;1284;72873;-84
2023/09/11 07:32:04;;;;;;;8.00;7.00;;;;;;;43.23;23.82;101400.94;107035;1283;58237;-84
2023/09/11 07:34:30;;;;;;;9.90;7.40;;;;;;;43.51;23.83;101406.52;107064;1283;58344;-83
2023/09/11 07:36:55;;;;;;;8.20;7.40;;;;;;;43.17;23.53;101407.11;107072;1284;58341;-83
2023/09/11 07:39:21;;;;;;;9.00;6.80;;;;;;;42.74;23.99;101405.07;107041;1283;58442;-83
2023/09/11 07:41:47;;;;;;;9.10;7.30;;;;;;;43.01;23.81;101402.84;107074;1283;58169;-84
2023/09/11 07:44:13;;;;;;;7.90;7.10;;;;;;;42.79;23.18;101404.78;107016;1284;60932;-83
2023/09/11 07:46:39;;;;;;;7.10;6.50;;;;;;;42.52;23.72;101396.98;106767;1285;58607;-83
2023/09/11 07:49:05;;;;;;;9.10;7.40;;;;;;;42.35;23.06;101399.30;107018;1283;58505;-83
2023/09/11 07:51:30;;;;;;;11.70;6.80;;;;;;;41.96;23.71;101399.41;107016;1283;58202;-83
2023/09/11 07:53:58;;;;;;;9.80;7.10;;;;;;;41.81;23.67;101397.81;107043;1283;58268;-83
2023/09/11 07:56:24;;;;;;;7.90;6.80;;;;;;;41.91;24.03;101396.33;107042;1283;58502;-83
2023/09/11 07:58:50;;;;;;;7.50;6.70;;;;;;;42.42;23.87;101397.42;106709;1285;59203;-82
2023/09/11 08:01:18;;;;;;;7.80;6.80;;;;;;;42.74;22.99;101393.64;106728;1284;58365;-83
2023/09/11 08:03:44;;;;;;;7.90;7.10;;;;;;;42.78;23.63;101393.20;106993;1283;58281;-82
2023/09/11 08:06:10;;;;;;;7.70;6.90;;;;;;;43.28;22.85;101389.46;107056;1283;58722;-82
2023/09/11 08:08:37;;;;;;;8.20;7.40;;;;;;;42.81;22.61;101388.73;107039;1284;58243;-82
2023/09/11 08:11:16;;;;;;;7.70;7.00;;;;;;;42.94;22.90;101389.83;107078;1284;58422;-82
2023/09/11 08:13:43;;;;;;;9.30;6.10;;;;;;;42.54;22.69;101382.30;107036;1283;74192;-80
2023/09/11 08:16:09;;;;;;;10.00;7.40;;;;;;;42.53;22.88;101380.03;107022;1283;58657;-83
2023/09/11 08:18:35;;;;;;;7.80;6.40;;;;;;;42.46;22.69;101381.10;107052;1284;58169;-82
2023/09/11 08:21:00;;;;;;;7.80;5.90;;;;;;;41.77;22.53;101381.67;106774;1283;58211;-82
2023/09/11 08:23:26;;;;;;;9.60;6.10;;;;;;;40.34;23.61;101379.04;107056;1283;58282;-82
2023/09/11 08:25:56;;;;;;;9.50;6.00;;;;;;;40.44;24.60;101374.23;107046;1283;58450;-82
2023/09/11 08:28:22;;;;;;;8.10;5.30;;;;;;;41.37;24.03;101368.80;106996;1285;72494;-82
2023/09/11 08:30:50;;;;;;;7.50;5.20;;;;;;;41.12;23.32;101368.97;107056;1283;58491;-81
2023/09/11 08:33:16;;;;;;;8.10;4.70;;;;;;;39.85;23.73;101373.54;107063;1286;58857;-81
2023/09/11 08:35:42;;;;;;;6.30;4.60;;;;;;;38.59;24.43;101374.98;106815;1284;58391;-82
2023/09/11 08:38:08;;;;;;;10.40;4.70;;;;;;;37.37;24.73;101373.83;107052;1283;58186;-83
2023/09/11 08:40:34;;;;;;;11.40;4.40;;;;;;;35.81;25.45;101378.77;106758;1285;58268;-82
2023/09/11 08:43:00;;;;;;;5.70;4.10;;;;;;;34.47;26.77;101383.27;107033;1286;58359;-82
2023/09/11 08:45:26;;;;;;;7.80;5.00;;;;;;;33.86;27.98;101375.55;106627;1283;58436;-81
2023/09/11 08:47:57;;;;;;;5.80;4.10;;;;;;;34.39;28.85;101375.61;106829;1283;58407;-81
2023/09/11 08:50:30;;;;;;;4.50;3.60;;;;;;;35.81;27.84;101363.56;106732;1283;73363;-82
2023/09/11 08:52:58;;;;;;;8.10;4.10;;;;;;;37.00;26.39;101354.80;107037;1283;73275;-82
2023/09/11 08:55:25;;;;;;;5.90;4.50;;;;;;;37.71;25.53;101347.43;107039;1283;60263;-81
2023/09/11 08:57:52;;;;;;;7.70;4.20;;;;;;;37.96;25.85;101343.35;107044;1283;61508;-81
2023/09/11 09:00:19;;;;;;;5.90;4.10;;;;;;;38.54;24.96;101340.27;106759;1285;75348;-81
2023/09/11 09:02:45;;;;;;;8.90;4.20;;;;;;;38.75;24.75;101339.10;106625;1286;73756;-81
2023/09/11 09:05:11;;;;;;;6.90;4.10;;;;;;;38.91;23.86;101337.20;106585;1286;58295;-81
2023/09/11 09:07:38;;;;;;;8.50;4.60;;;;;;;38.32;24.88;101336.23;106606;1286;58699;-81
2023/09/11 09:10:05;;;;;;;7.70;4.70;;;;;;;38.56;25.09;101332.61;106782;1286;58385;-81
2023/09/11 09:12:31;;;;;;;6.80;3.80;;;;;;;39.09;24.71;101331.23;106611;1286;58214;-81
2023/09/11 09:14:57;;;;;;;6.30;4.00;;;;;;;39.21;24.20;101331.44;106390;1286;73648;-81
2023/09/11 09:17:23;;;;;;;10.40;4.00;;;;;;;38.50;24.11;101330.70;106740;1286;58309;-82
2023/09/11 09:19:48;;;;;;;8.50;4.10;;;;;;;37.14;24.48;101327.28;106281;1286;58394;-81
2023/09/11 09:22:14;;;;;;;6.20;4.20;;;;;;;36.09;25.69;101326.98;106738;1285;58284;-81
2023/09/11 09:24:55;;;;;;;7.00;3.90;;;;;;;35.76;26.23;101325.63;106588;1286;58583;-82
2023/09/11 09:27:24;;;;;;;7.70;3.60;;;;;;;35.73;26.49;101323.02;106613;1286;74300;-81
2023/09/11 09:29:50;;;;;;;5.40;3.40;;;;;;;35.89;26.31;101320.76;106403;1289;72064;-82
2023/09/11 09:32:16;;;;;;;6.20;3.30;;;;;;;35.94;25.83;101322.65;106975;1283;58444;-81
2023/09/11 09:34:49;;;;;;;6.40;3.60;;;;;;;35.62;26.03;101320.64;106552;1287;58387;-82
2023/09/11 09:37:19;;;;;;;5.30;3.60;;;;;;;35.46;25.81;101318.04;106646;1287;74543;-82
2023/09/11 09:39:48;;;;;;;6.30;3.80;;;;;;;35.19;26.35;101316.26;106462;1286;74854;-81
2023/09/11 09:42:14;;;;;;;5.10;3.30;;;;;;;35.03;26.49;101317.73;106649;1286;73583;-82
2023/09/11 09:44:42;;;;;;;5.30;3.30;;;;;;;35.05;26.64;101317.16;106527;1286;59252;-81
2023/09/11 09:47:09;;;;;;;5.70;3.90;;;;;;;35.09;26.57;101311.13;106327;1286;58816;-81
2023/09/11 09:49:49;;;;;;;12.10;3.60;;;;;;;34.56;26.53;101309.73;106690;1288;73759;-81
2023/09/11 09:52:17;;;;;;;7.80;3.40;;;;;;;34.19;27.88;101306.05;106427;1289;74360;-81
2023/09/11 09:54:54;;;;;;;6.30;3.90;;;;;;;34.42;27.85;101306.66;106072;1289;72647;-81
2023/09/11 09:57:22;;;;;;;6.30;3.20;;;;;;;34.56;27.84;101309.83;106345;1289;60148;-81
2023/09/11 09:59:58;;;;;;;9.40;3.90;;;;;;;34.50;27.04;101310.23;106265;1289;60301;-81
2023/09/11 10:02:28;;;;;;;8.00;3.20;;;;;;;33.98;27.56;101307.70;106443;1289;74643;-81
2023/09/11 10:04:55;;;;;;;8.50;4.10;;;;;;;33.63;28.16;101304.39;106201;1285;74613;-81
2023/09/11 10:07:41;;;;;;;5.10;3.40;;;;;;;33.79;28.30;101301.57;106479;1286;73540;-81
2023/09/11 10:10:29;;;;;;;6.90;3.20;;;;;;;33.77;27.64;101300.36;106758;1286;60149;-81
2023/09/11 10:13:00;;;;;;;7.70;3.50;;;;;;;33.43;27.13;101297.84;106767;1286;59500;-80
2023/09/11 10:15:27;;;;;;;5.10;3.30;;;;;;;32.33;27.46;101299.46;106754;1285;75001;-81
2023/09/11 10:17:56;;;;;;;7.80;3.60;;;;;;;31.50;28.77;101295.84;106344;1285;58668;-81
2023/09/11 10:20:22;;;;;;;5.70;3.40;;;;;;;30.85;29.20;101294.90;106756;1285;73447;-81
2023/09/11 10:22:48;;;;;;;5.30;3.90;;;;;;;30.21;30.13;101296.26;106796;1283;60122;-81
2023/09/11 10:25:17;;;;;;;6.10;3.30;;;;;;;30.07;30.36;101293.45;106709;1289;58259;-80
2023/09/11 10:27:44;;;;;;;6.20;3.70;;;;;;;29.78;30.77;101283.27;107044;1283;74616;-83
2023/09/11 10:30:14;;;;;;;9.90;3.60;;;;;;;29.72;30.89;101278.56;106772;1282;74198;-83
2023/09/11 10:32:57;;;;;;;5.80;3.70;;;;;;;29.64;31.61;101276.23;107023;1285;73338;-83
2023/09/11 10:35:24;;;;;;;15.90;3.80;;;;;;;29.76;31.42;101281.48;106783;1283;60711;-83
2023/09/11 10:37:56;;;;;;;6.40;3.80;;;;;;;29.49;31.55;101280.58;106807;1283;59907;-83
2023/09/11 10:40:32;;;;;;;6.20;3.60;;;;;;;28.99;31.98;101280.65;106870;1283;73611;-83
2023/09/11 10:42:58;;;;;;;8.10;4.10;;;;;;;28.53;32.32;101271.29;107082;1283;73430;-83
2023/09/11 10:45:29;;;;;;;5.80;3.30;;;;;;;28.18;33.27;101273.48;107118;1282;58222;-83
2023/09/11 10:47:55;;;;;;;11.50;4.30;;;;;;;28.07;33.47;101268.89;107087;1282;60085;-83
2023/09/11 10:50:32;;;;;;;8.40;3.30;;;;;;;28.09;33.42;101261.56;107139;1283;58092;-82
2023/09/11 10:52:57;;;;;;;7.30;3.70;;;;;;;27.89;33.70;101257.48;106789;1283;74578;-83
2023/09/11 10:55:24;;;;;;;8.90;3.50;;;;;;;27.85;33.47;101259.21;107128;1282;58434;-83
2023/09/11 10:57:56;;;;;;;6.20;4.20;;;;;;;27.62;33.97;101264.38;107096;1282;58267;-83
2023/09/11 11:00:22;;;;;;;6.40;3.60;;;;;;;27.57;34.97;101262.65;106964;1286;59137;-82
2023/09/11 11:02:49;;;;;;;6.90;3.60;;;;;;;28.09;35.17;101257.99;107027;1285;58228;-82
2023/09/11 11:05:15;;;;;;;8.40;3.60;;;;;;;28.69;34.45;101250.36;107131;1283;58235;-82
2023/09/11 11:07:41;;;;;;;5.50;3.70;;;;;;;29.25;34.19;101250.02;107087;1282;58225;-81